Time;durP1;ratioP1;P1;durP2;ratioP2;P2;SDS_P1;SDS_P2;PMS_P1;PMS_P2;Temp;Humidity;BMP_temperature;BMP_pressure;BME280_temperature;BME280_humidity;BME280_pressure;Samples;Min_cycle;Max_cycle;Signal;HPM_P1;HPM_P2
2021/06/10 00:00:17;;;;;;;3.00;1.90;;;;;;;15.28;83.47;101095.75;5960272;23;20452;-85
2021/06/10 00:02:43;;;;;;;2.72;1.70;;;;;;;15.24;83.64;101097.19;5959768;23;20080;-85
2021/06/10 00:05:10;;;;;;;2.42;1.52;;;;;;;15.14;83.69;101092.13;5960221;23;20011;-83
2021/06/10 00:07:36;;;;;;;2.83;1.83;;;;;;;15.14;83.89;101092.13;5982134;23;20043;-84
2021/06/10 00:10:05;;;;;;;2.30;1.67;;;;;;;15.07;83.92;101085.81;5981895;23;20004;-85
2021/06/10 00:12:30;;;;;;;2.33;1.52;;;;;;;15.16;83.83;101097.31;5983374;23;20004;-85
2021/06/10 00:14:57;;;;;;;2.47;1.73;;;;;;;14.91;83.85;101065.28;5959521;23;20018;-83
2021/06/10 00:17:22;;;;;;;2.13;1.70;;;;;;;15.18;84.25;101103.38;5983575;23;20075;-84
2021/06/10 00:19:47;;;;;;;2.92;1.48;;;;;;;14.86;84.21;101056.06;6008700;23;20004;-83
2021/06/10 00:22:13;;;;;;;2.92;1.67;;;;;;;14.96;84.23;101070.09;5961058;23;20094;-82
2021/06/10 00:24:38;;;;;;;3.10;1.38;;;;;;;15.05;84.36;101089.75;5960702;23;20438;-84
2021/06/10 00:27:04;;;;;;;2.40;1.48;;;;;;;15.04;84.54;101090.78;5985284;23;20007;-82
2021/06/10 00:29:30;;;;;;;3.38;1.52;;;;;;;15.10;84.66;101100.81;5983073;23;20037;-84
2021/06/10 00:31:55;;;;;;;1.92;1.30;;;;;;;15.11;84.46;101102.50;5981663;23;20016;-85
2021/06/10 00:34:21;;;;;;;3.22;1.52;;;;;;;15.01;84.48;101075.78;5959592;23;20003;-83
2021/06/10 00:36:46;;;;;;;3.75;1.75;;;;;;;14.97;84.54;101092.59;5960431;23;20079;-85
2021/06/10 00:39:11;;;;;;;3.65;1.77;;;;;;;14.91;84.87;101077.97;5959605;23;20090;-85
2021/06/10 00:41:38;;;;;;;2.85;1.65;;;;;;;14.93;85.20;101087.59;5959030;23;20087;-85
2021/06/10 00:44:06;;;;;;;2.00;1.38;;;;;;;14.91;85.20;101086.09;5962069;23;20015;-86
2021/06/10 00:46:32;;;;;;;2.47;1.63;;;;;;;14.89;85.35;101080.88;5959157;23;20052;-86
2021/06/10 00:48:58;;;;;;;2.20;1.50;;;;;;;14.97;85.44;101089.91;5983557;23;20147;-85
2021/06/10 00:51:23;;;;;;;2.47;1.50;;;;;;;14.67;85.49;101047.59;5983197;23;20489;-85
2021/06/10 00:53:49;;;;;;;2.30;1.50;;;;;;;14.95;85.62;101090.06;5984257;23;20014;-84
2021/06/10 00:56:14;;;;;;;2.25;1.50;;;;;;;14.77;85.61;101060.81;5984365;23;20091;-87
2021/06/10 00:58:40;;;;;;;2.70;1.73;;;;;;;14.90;85.58;101084.44;5958982;23;20106;-84
2021/06/10 01:01:05;;;;;;;2.72;1.70;;;;;;;14.86;85.55;101069.63;5959070;23;20091;-85
2021/06/10 01:03:31;;;;;;;2.10;1.38;;;;;;;14.88;85.46;101083.78;5982675;23;20015;-85
2021/06/10 01:05:59;;;;;;;3.00;1.83;;;;;;;14.88;85.70;101078.38;5959237;23;20023;-85
2021/06/10 01:08:44;;;;;;;2.63;1.65;;;;;;;14.91;85.83;101089.66;5958341;23;20323;-85
2021/06/10 01:11:16;;;;;;;4.10;1.80;;;;;;;14.93;85.77;101093.00;5958618;23;20559;-86
2021/06/10 01:14:15;;;;;;;2.47;1.42;;;;;;;14.92;85.76;101091.34;5981852;23;20014;-85
2021/06/10 01:16:45;;;;;;;2.55;1.52;;;;;;;14.91;85.66;101080.69;5981499;23;20035;-85
2021/06/10 01:19:18;;;;;;;2.92;1.65;;;;;;;14.89;86.00;101080.03;5956509;23;20075;-85
2021/06/10 01:21:44;;;;;;;2.45;1.40;;;;;;;14.90;85.87;101081.75;5980696;23;20007;-85
2021/06/10 01:24:29;;;;;;;2.38;1.90;;;;;;;14.90;85.73;101087.97;5959646;23;20034;-84
2021/06/10 01:27:01;;;;;;;3.72;1.70;;;;;;;14.89;85.84;101093.59;5981823;23;20018;-86
2021/06/10 01:29:27;;;;;;;2.42;1.83;;;;;;;14.86;85.88;101092.09;5958477;23;20083;-86
2021/06/10 01:31:53;;;;;;;2.30;1.70;;;;;;;14.82;85.93;101090.84;5981840;23;20014;-86
2021/06/10 01:34:20;;;;;;;2.45;1.75;;;;;;;14.77;85.83;101085.16;5957243;23;20031;-85
2021/06/10 01:36:47;;;;;;;2.38;1.70;;;;;;;14.73;86.23;101089.28;5981808;23;20023;-85
2021/06/10 01:39:16;;;;;;;2.17;1.60;;;;;;;14.74;86.54;101101.81;5958773;23;20094;-86
2021/06/10 01:41:42;;;;;;;1.80;1.60;;;;;;;14.70;86.52;101092.38;5983273;23;20008;-85
2021/06/10 01:44:10;;;;;;;2.47;1.85;;;;;;;14.59;86.70;101065.84;5982940;23;20011;-86
2021/06/10 01:46:35;;;;;;;2.05;1.60;;;;;;;14.61;86.66;101075.47;5959341;23;20374;-86
2021/06/10 01:49:01;;;;;;;2.10;1.60;;;;;;;14.64;87.00;101082.34;5957855;23;20466;-84
2021/06/10 01:51:29;;;;;;;2.50;1.70;;;;;;;14.66;86.92;101086.53;5980829;23;20327;-84
2021/06/10 01:53:57;;;;;;;1.88;1.50;;;;;;;14.65;86.82;101074.00;5961150;23;20035;-86
2021/06/10 01:56:24;;;;;;;1.92;1.50;;;;;;;14.71;87.01;101075.09;5961066;23;20449;-84
2021/06/10 01:58:50;;;;;;;1.73;1.40;;;;;;;14.69;86.74;101072.59;5982657;23;20083;-85
2021/06/10 02:01:16;;;;;;;1.98;1.20;;;;;;;14.69;86.82;101069.91;5958838;23;20015;-85
2021/06/10 02:03:44;;;;;;;1.77;1.20;;;;;;;14.68;86.72;101065.50;5960147;23;20087;-85
2021/06/10 02:06:09;;;;;;;1.70;1.10;;;;;;;14.67;87.15;101036.78;5982183;23;20008;-85
2021/06/10 02:08:37;;;;;;;2.28;1.27;;;;;;;14.68;86.83;101038.44;5957542;23;20007;-85
2021/06/10 02:11:03;;;;;;;1.90;1.52;;;;;;;14.71;86.96;101023.69;5957091;23;20012;-84
2021/06/10 02:13:31;;;;;;;1.70;1.10;;;;;;;14.70;87.11;101035.53;5958996;23;20387;-85
2021/06/10 02:15:59;;;;;;;2.67;1.20;;;;;;;14.63;87.16;101030.09;5960238;23;20007;-85
2021/06/10 02:18:25;;;;;;;1.73;1.00;;;;;;;14.65;87.31;101043.41;5982223;23;20524;-85
2021/06/10 02:20:50;;;;;;;2.28;1.00;;;;;;;14.65;87.18;101027.19;5958405;23;20030;-85
2021/06/10 02:23:16;;;;;;;1.73;1.17;;;;;;;14.62;87.26;101014.03;5959161;23;20345;-86
2021/06/10 02:25:41;;;;;;;1.45;1.08;;;;;;;14.64;87.61;101002.00;5958595;23;20015;-85
2021/06/10 02:28:07;;;;;;;2.42;1.02;;;;;;;14.68;87.43;100997.00;5957467;23;20011;-84
2021/06/10 02:30:34;;;;;;;1.40;1.00;;;;;;;14.67;87.37;101012.41;5959224;23;20008;-85
2021/06/10 02:32:59;;;;;;;1.50;1.30;;;;;;;14.69;87.29;101018.47;5958985;23;20039;-85
2021/06/10 02:35:25;;;;;;;1.42;1.00;;;;;;;14.68;87.47;101013.25;5983890;23;20011;-84
2021/06/10 02:37:53;;;;;;;2.55;1.25;;;;;;;14.72;87.52;101011.84;5958305;23;20000;-85
2021/06/10 02:40:27;;;;;;;1.27;1.10;;;;;;;14.68;87.17;101003.25;5959404;23;20035;-84
2021/06/10 02:42:55;;;;;;;1.52;1.00;;;;;;;14.71;86.97;101010.16;5959483;23;20094;-85
2021/06/10 02:45:20;;;;;;;1.70;1.08;;;;;;;14.74;86.97;101015.19;5982732;23;20004;-85
2021/06/10 02:47:46;;;;;;;1.25;0.90;;;;;;;14.73;86.86;101008.09;5958807;23;20030;-85
2021/06/10 02:50:15;;;;;;;1.45;1.02;;;;;;;14.69;87.09;100991.41;5982254;23;20004;-84
2021/06/10 02:52:43;;;;;;;1.25;0.90;;;;;;;14.69;86.63;100991.41;5958096;23;20004;-84
2021/06/10 02:55:10;;;;;;;2.00;0.93;;;;;;;14.75;86.60;100997.91;5959667;23;20458;-85
2021/06/10 02:57:36;;;;;;;1.90;0.90;;;;;;;14.68;86.77;100981.59;5959201;23;20008;-86
2021/06/10 03:00:02;;;;;;;1.00;0.70;;;;;;;14.77;86.74;100998.56;5982028;23;20008;-84
2021/06/10 03:02:28;;;;;;;1.38;1.00;;;;;;;14.74;86.54;100990.84;5958497;23;20039;-84
2021/06/10 03:04:53;;;;;;;1.17;0.82;;;;;;;14.78;86.49;100992.09;5958469;23;20497;-85
2021/06/10 03:07:20;;;;;;;2.10;0.77;;;;;;;14.79;86.52;100990.22;5982488;23;20040;-85
2021/06/10 03:09:46;;;;;;;1.13;0.75;;;;;;;14.82;86.65;100990.66;5982243;23;20156;-84
2021/06/10 03:12:13;;;;;;;1.27;0.95;;;;;;;14.76;86.42;100979.78;5981670;23;20039;-84
2021/06/10 03:14:41;;;;;;;0.88;0.80;;;;;;;14.82;86.38;100978.97;5981048;23;20056;-85
2021/06/10 03:17:07;;;;;;;1.00;0.70;;;;;;;14.81;86.36;100974.63;5958571;23;20011;-84
2021/06/10 03:19:33;;;;;;;1.58;1.02;;;;;;;14.76;86.77;100963.53;5982546;23;20003;-85
2021/06/10 03:21:59;;;;;;;1.30;0.95;;;;;;;14.73;86.64;100975.59;5959543;23;20023;-85
2021/06/10 03:24:24;;;;;;;1.50;1.10;;;;;;;14.60;86.89;100943.88;5959569;23;20068;-84
2021/06/10 03:26:50;;;;;;;2.10;1.00;;;;;;;14.70;87.10;100966.00;5958161;23;20439;-85
2021/06/10 03:29:15;;;;;;;1.65;1.10;;;;;;;14.64;87.13;100955.16;5957776;23;20095;-85
2021/06/10 03:31:41;;;;;;;1.38;0.88;;;;;;;14.68;86.94;100961.81;5959118;23;20061;-85
2021/06/10 03:34:07;;;;;;;1.20;1.00;;;;;;;14.65;87.10;100946.00;5959645;23;20320;-84
2021/06/10 03:36:33;;;;;;;1.30;0.93;;;;;;;14.66;87.12;100956.63;5959354;23;20102;-84
2021/06/10 03:39:00;;;;;;;1.20;0.90;;;;;;;14.70;87.23;100963.31;5958735;23;20027;-84
2021/06/10 03:41:26;;;;;;;2.13;1.00;;;;;;;14.70;87.21;100965.19;5957870;23;20528;-85
2021/06/10 03:43:52;;;;;;;0.98;0.80;;;;;;;14.73;87.47;100960.19;5983275;23;20012;-85
2021/06/10 03:46:18;;;;;;;1.45;1.02;;;;;;;14.44;87.28;100923.31;5982356;23;20000;-85
2021/06/10 03:48:43;;;;;;;0.85;0.75;;;;;;;14.71;87.52;100950.59;5958835;23;20023;-85
2021/06/10 03:51:15;;;;;;;1.30;0.90;;;;;;;14.73;87.28;100948.53;5959700;23;20407;-85
2021/06/10 03:53:42;;;;;;;1.10;0.93;;;;;;;14.77;87.60;100960.66;5959544;23;20008;-85
2021/06/10 03:56:08;;;;;;;0.98;0.80;;;;;;;14.75;87.42;100951.88;5982458;23;20056;-85
2021/06/10 03:58:33;;;;;;;1.55;1.02;;;;;;;14.79;87.62;100958.59;5959364;23;20009;-85
2021/06/10 04:00:59;;;;;;;2.67;0.90;;;;;;;14.70;87.41;100938.94;5960325;23;20019;-84
2021/06/10 04:03:24;;;;;;;1.33;0.90;;;;;;;14.84;87.64;100945.25;5982324;23;20011;-84
2021/06/10 04:05:50;;;;;;;1.08;0.73;;;;;;;14.81;87.56;100942.97;5958931;23;20099;-85
2021/06/10 04:08:15;;;;;;;1.08;0.95;;;;;;;14.87;87.64;100944.91;5958301;23;20506;-86
2021/06/10 04:10:41;;;;;;;1.38;0.88;;;;;;;14.81;87.49;100934.84;5983468;23;20007;-84
2021/06/10 04:13:06;;;;;;;1.55;0.88;;;;;;;14.84;87.93;100928.19;5959095;23;20333;-84
2021/06/10 04:15:31;;;;;;;1.13;0.90;;;;;;;14.83;87.80;100942.78;6007520;23;20524;-85
2021/06/10 04:17:57;;;;;;;1.65;1.00;;;;;;;14.82;87.72;100941.94;5958904;23;20078;-86
2021/06/10 04:20:22;;;;;;;1.23;0.88;;;;;;;14.83;87.88;100948.19;5959443;23;20107;-85
2021/06/10 04:22:48;;;;;;;1.33;0.80;;;;;;;14.83;88.24;100953.59;5959728;23;20018;-85
2021/06/10 04:25:14;;;;;;;0.70;0.70;;;;;;;14.84;87.93;100947.97;5959276;23;20323;-85
2021/06/10 04:27:39;;;;;;;1.17;0.90;;;;;;;14.77;88.60;100939.00;5982600;23;20004;-85
2021/06/10 04:30:07;;;;;;;1.80;0.80;;;;;;;14.82;88.80;100946.50;5959293;23;20011;-84
2021/06/10 04:32:32;;;;;;;1.15;0.90;;;;;;;14.80;88.93;100951.31;5981897;23;20019;-85
2021/06/10 04:34:57;;;;;;;1.48;1.02;;;;;;;14.69;88.89;100926.47;5958245;23;20007;-84
2021/06/10 04:37:23;;;;;;;1.20;0.90;;;;;;;14.61;88.88;100904.13;5982320;23;20011;-85
2021/06/10 04:39:48;;;;;;;0.98;0.75;;;;;;;14.81;88.82;100944.84;5959916;23;20441;-85
2021/06/10 04:42:14;;;;;;;0.88;0.80;;;;;;;14.75;88.73;100929.41;5958804;23;20007;-84
2021/06/10 04:44:39;;;;;;;1.50;1.00;;;;;;;14.86;88.71;100947.78;5957696;23;20003;-85
2021/06/10 04:47:05;;;;;;;1.20;0.88;;;;;;;14.82;88.59;100927.56;5956573;23;20004;-84
2021/06/10 04:49:34;;;;;;;1.48;1.05;;;;;;;14.83;88.51;100943.59;5982401;23;20007;-84
2021/06/10 04:52:00;;;;;;;1.08;0.70;;;;;;;14.85;88.72;100932.59;5982960;23;20056;-85
2021/06/10 04:54:25;;;;;;;1.20;0.90;;;;;;;14.88;88.58;100943.84;5959783;23;20008;-85
2021/06/10 04:56:51;;;;;;;0.95;0.70;;;;;;;14.77;88.60;100911.94;5958323;23;20004;-85
2021/06/10 04:59:16;;;;;;;1.60;0.80;;;;;;;14.88;88.53;100935.72;5958761;23;20015;-85
2021/06/10 05:01:41;;;;;;;1.92;0.90;;;;;;;14.91;88.38;100943.44;5958622;23;20007;-85
2021/06/10 05:04:07;;;;;;;0.88;0.60;;;;;;;14.84;88.36;100923.59;5958128;23;20015;-85
2021/06/10 05:06:32;;;;;;;0.75;0.70;;;;;;;14.90;88.56;100928.25;5981930;23;20334;-84
2021/06/10 05:08:58;;;;;;;1.00;0.70;;;;;;;14.93;88.58;100937.84;5981099;23;20011;-85
2021/06/10 05:11:23;;;;;;;1.05;0.60;;;;;;;14.88;88.42;100921.34;5982050;23;20007;-85
2021/06/10 05:13:48;;;;;;;1.00;0.70;;;;;;;14.93;88.58;100935.97;5957693;23;20046;-85
2021/06/10 05:16:14;;;;;;;2.03;0.73;;;;;;;14.89;88.44;100939.25;5958261;23;20388;-84
2021/06/10 05:18:39;;;;;;;0.95;0.68;;;;;;;14.87;88.53;100930.50;5957273;23;20007;-85
2021/06/10 05:21:05;;;;;;;1.02;0.73;;;;;;;14.83;88.40;100921.13;5956710;23;20012;-85
2021/06/10 05:23:30;;;;;;;0.90;0.60;;;;;;;14.78;88.51;100921.72;5958380;23;20016;-85
2021/06/10 05:25:55;;;;;;;1.30;0.70;;;;;;;14.77;88.74;100925.47;5956618;23;20034;-84
2021/06/10 05:28:21;;;;;;;0.57;0.50;;;;;;;14.83;88.72;100932.78;5954259;23;20007;-84
2021/06/10 05:30:46;;;;;;;0.80;0.60;;;;;;;14.78;88.66;100932.53;5956620;23;20260;-85
2021/06/10 05:33:12;;;;;;;0.70;0.60;;;;;;;14.82;88.53;100936.53;5956136;23;20008;-85
2021/06/10 05:35:37;;;;;;;0.65;0.55;;;;;;;14.82;88.57;100933.81;5955518;23;20622;-84
2021/06/10 05:38:03;;;;;;;0.60;0.50;;;;;;;14.84;88.54;100929.03;5956058;23;20618;-84
2021/06/10 05:40:29;;;;;;;0.90;0.60;;;;;;;14.87;88.56;100930.50;5957787;23;20108;-85
2021/06/10 05:42:55;;;;;;;2.10;0.73;;;;;;;14.92;88.53;100945.13;5954614;23;20016;-85
2021/06/10 05:45:20;;;;;;;0.70;0.50;;;;;;;14.89;88.49;100937.38;5956449;23;20110;-86
2021/06/10 05:47:46;;;;;;;1.20;0.70;;;;;;;14.92;88.69;100936.16;5979348;23;20330;-85
2021/06/10 05:50:11;;;;;;;1.20;0.63;;;;;;;14.81;88.55;100918.59;5957423;23;20010;-84
2021/06/10 05:52:39;;;;;;;0.60;0.57;;;;;;;14.94;88.69;100931.38;5981036;23;20003;-85
2021/06/10 05:55:06;;;;;;;0.60;0.50;;;;;;;14.91;88.58;100924.50;5960244;23;20090;-85
2021/06/10 05:57:31;;;;;;;0.50;0.50;;;;;;;14.95;88.67;100924.91;5957873;23;20012;-84
2021/06/10 05:59:57;;;;;;;0.80;0.70;;;;;;;14.96;88.68;100934.72;5982838;23;20014;-85
2021/06/10 06:02:22;;;;;;;1.33;0.60;;;;;;;14.98;88.37;100926.38;5958749;23;20015;-85
2021/06/10 06:04:47;;;;;;;0.52;0.50;;;;;;;15.08;88.27;100926.84;5957338;23;20018;-85
2021/06/10 06:07:13;;;;;;;0.57;0.50;;;;;;;15.11;88.26;100926.44;5957988;23;20008;-85
2021/06/10 06:09:38;;;;;;;0.98;0.52;;;;;;;15.12;87.79;100909.19;5957366;23;20019;-86
2021/06/10 06:12:08;;;;;;;1.08;0.60;;;;;;;15.27;87.54;100923.41;5981793;23;20039;-86
2021/06/10 06:14:35;;;;;;;0.85;0.50;;;;;;;15.32;87.12;100930.91;5960006;23;20007;-85
2021/06/10 06:17:05;;;;;;;0.50;0.40;;;;;;;15.28;87.00;100914.25;5961879;23;20007;-85
2021/06/10 06:19:30;;;;;;;0.77;0.55;;;;;;;15.44;86.81;100928.47;5959647;23;20067;-85
2021/06/10 06:21:56;;;;;;;0.75;0.50;;;;;;;15.47;86.80;100925.34;5981714;23;20019;-84
2021/06/10 06:24:21;;;;;;;0.90;0.47;;;;;;;15.33;86.43;100883.84;5957355;23;20403;-84
2021/06/10 06:26:47;;;;;;;0.60;0.50;;;;;;;15.61;86.08;100911.63;5957639;23;20015;-84
2021/06/10 06:29:12;;;;;;;0.47;0.47;;;;;;;15.64;85.88;100923.94;5980151;23;20011;-86
2021/06/10 06:31:37;;;;;;;0.35;0.30;;;;;;;15.70;85.81;100916.91;5980901;23;20010;-85
2021/06/10 06:34:03;;;;;;;0.40;0.40;;;;;;;15.71;85.48;100903.13;5957267;23;20023;-85
2021/06/10 06:36:28;;;;;;;0.73;0.50;;;;;;;15.81;84.94;100908.97;5958173;23;20015;-85
2021/06/10 06:38:56;;;;;;;0.47;0.45;;;;;;;15.95;84.72;100919.84;5979601;23;20067;-85
2021/06/10 06:41:21;;;;;;;0.40;0.40;;;;;;;16.07;84.42;100920.91;5957027;23;20012;-85
2021/06/10 06:43:47;;;;;;;0.45;0.30;;;;;;;16.04;83.99;100914.00;5957506;23;20011;-84
2021/06/10 06:46:12;;;;;;;0.50;0.50;;;;;;;15.79;84.22;100886.66;5956107;23;20012;-86
2021/06/10 06:48:38;;;;;;;0.40;0.40;;;;;;;15.93;84.53;100917.34;5957019;23;20099;-85
2021/06/10 06:51:05;;;;;;;0.55;0.40;;;;;;;15.89;84.50;100940.47;5958590;23;20015;-85
2021/06/10 06:53:31;;;;;;;0.50;0.47;;;;;;;15.84;84.42;100937.56;5957791;23;20008;-85
2021/06/10 06:55:58;;;;;;;0.55;0.50;;;;;;;15.79;84.66;100921.06;5980730;23;20012;-84
2021/06/10 06:58:23;;;;;;;0.95;0.50;;;;;;;15.74;84.64;100924.38;5957122;23;20067;-85
2021/06/10 07:00:49;;;;;;;0.70;0.43;;;;;;;15.70;84.82;100923.16;5957929;23;20008;-84
2021/06/10 07:03:14;;;;;;;0.50;0.50;;;;;;;15.80;84.58;100928.19;5957203;23;20012;-85
2021/06/10 07:05:40;;;;;;;0.40;0.40;;;;;;;15.70;84.51;100906.88;5980168;23;20008;-84
2021/06/10 07:08:06;;;;;;;0.50;0.50;;;;;;;15.81;84.47;100917.09;5956064;23;20334;-84
2021/06/10 07:10:31;;;;;;;0.43;0.40;;;;;;;15.82;84.51;100910.66;5957472;23;20012;-85
2021/06/10 07:12:56;;;;;;;0.70;0.50;;;;;;;15.91;84.19;100929.44;5957234;23;20007;-85
2021/06/10 07:15:22;;;;;;;1.25;0.38;;;;;;;15.89;83.60;100909.81;5956899;23;20007;-86
2021/06/10 07:17:47;;;;;;;0.70;0.50;;;;;;;15.87;83.40;100911.91;5979129;23;20361;-84
2021/06/10 07:20:13;;;;;;;0.93;0.30;;;;;;;16.07;83.19;100920.06;5953840;23;20090;-85
2021/06/10 07:22:39;;;;;;;0.47;0.47;;;;;;;16.14;83.17;100919.03;5956401;23;20011;-86
2021/06/10 07:25:06;;;;;;;0.40;0.40;;;;;;;16.21;82.84;100913.59;5979708;23;20008;-84
2021/06/10 07:27:32;;;;;;;0.98;0.55;;;;;;;16.29;82.31;100909.81;5956357;23;20012;-86
2021/06/10 07:29:59;;;;;;;1.05;0.40;;;;;;;16.36;82.04;100906.06;5956981;23;20031;-85
2021/06/10 07:32:24;;;;;;;0.68;0.50;;;;;;;16.45;81.92;100898.53;5958139;23;20066;-85
2021/06/10 07:34:50;;;;;;;0.63;0.50;;;;;;;16.54;81.20;100901.84;5983469;23;20022;-85
2021/06/10 07:37:15;;;;;;;0.70;0.50;;;;;;;16.62;80.92;100899.78;5956299;23;20012;-85
2021/06/10 07:39:41;;;;;;;0.65;0.40;;;;;;;16.78;80.56;100916.69;5955208;23;20095;-85
2021/06/10 07:42:07;;;;;;;0.60;0.55;;;;;;;16.82;80.64;100924.16;5979207;23;20003;-84
2021/06/10 07:44:32;;;;;;;0.40;0.40;;;;;;;16.80;80.38;100918.13;5955978;23;20016;-84
2021/06/10 07:46:58;;;;;;;0.43;0.40;;;;;;;16.81;79.92;100918.97;5978841;23;20394;-86
2021/06/10 07:49:23;;;;;;;0.57;0.50;;;;;;;16.81;80.00;100917.09;5954636;23;20043;-85
2021/06/10 07:51:49;;;;;;;0.60;0.50;;;;;;;16.80;80.35;100909.97;5956323;23;20003;-85
2021/06/10 07:54:14;;;;;;;0.60;0.50;;;;;;;16.83;80.33;100914.13;5978770;23;20003;-85
2021/06/10 07:56:40;;;;;;;1.17;0.70;;;;;;;16.83;80.16;100896.00;5955452;23;20064;-87
2021/06/10 07:59:06;;;;;;;0.40;0.40;;;;;;;17.00;80.22;100918.06;5955435;23;20038;-85
2021/06/10 08:01:31;;;;;;;1.35;0.70;;;;;;;17.01;80.12;100924.31;5955413;23;20011;-84
2021/06/10 08:03:57;;;;;;;3.33;1.95;;;;;;;16.98;79.89;100901.13;5955820;23;20049;-83
2021/06/10 08:06:23;;;;;;;1.25;0.75;;;;;;;17.16;78.98;100915.94;5976130;23;20126;-78
2021/06/10 08:08:50;;;;;;;0.70;0.70;;;;;;;17.28;78.61;100919.63;5976595;23;20012;-78
2021/06/10 08:11:16;;;;;;;0.85;0.60;;;;;;;17.44;77.75;100907.41;5953031;23;20099;-79
2021/06/10 08:13:42;;;;;;;0.75;0.63;;;;;;;17.62;77.45;100914.84;5975684;23;20031;-79
2021/06/10 08:16:08;;;;;;;1.25;0.77;;;;;;;17.69;77.37;100910.19;6003638;23;20010;-79
2021/06/10 08:18:33;;;;;;;1.02;0.80;;;;;;;17.74;76.92;100905.78;5979622;23;20004;-79
2021/06/10 08:21:00;;;;;;;0.90;0.75;;;;;;;17.77;76.62;100899.06;6005879;23;20014;-78
2021/06/10 08:23:27;;;;;;;2.65;1.00;;;;;;;17.81;76.59;100905.78;5981161;23;20392;-79
2021/06/10 08:25:57;;;;;;;1.83;0.70;;;;;;;17.84;76.19;100909.94;5981017;23;20008;-78
2021/06/10 08:28:23;;;;;;;0.77;0.70;;;;;;;18.07;75.88;100893.81;5969970;23;20009;-78
2021/06/10 08:30:48;;;;;;;0.73;0.70;;;;;;;18.37;75.19;100895.88;5983036;23;20456;-79
2021/06/10 08:33:14;;;;;;;2.00;0.90;;;;;;;18.54;74.17;100896.13;6006832;23;20012;-84
2021/06/10 08:35:39;;;;;;;1.08;0.73;;;;;;;18.45;74.01;100904.59;5986458;23;20003;-85
2021/06/10 08:38:09;;;;;;;1.00;0.68;;;;;;;18.17;74.81;100909.66;5962990;23;20013;-84
2021/06/10 08:40:36;;;;;;;1.10;0.70;;;;;;;18.08;75.83;100889.25;5963653;23;20022;-84
2021/06/10 08:43:02;;;;;;;1.42;0.80;;;;;;;18.10;75.50;100901.56;5964511;23;20407;-85
2021/06/10 08:45:30;;;;;;;1.50;1.00;;;;;;;18.04;75.85;100904.31;5964171;23;20011;-80
2021/06/10 08:47:55;;;;;;;1.23;0.80;;;;;;;17.86;75.67;100889.63;5962069;23;20012;-81
2021/06/10 08:50:24;;;;;;;1.52;1.20;;;;;;;17.77;75.80;100888.19;5964606;23;20010;-80
2021/06/10 08:52:54;;;;;;;1.63;1.00;;;;;;;17.79;76.22;100894.28;5965091;23;20008;-81
2021/06/10 08:55:20;;;;;;;3.35;1.10;;;;;;;17.78;75.95;100884.41;5986953;23;20505;-80
2021/06/10 08:57:46;;;;;;;1.20;0.90;;;;;;;17.74;75.95;100897.59;5980382;23;20000;-82
2021/06/10 09:00:12;;;;;;;2.10;1.40;;;;;;;17.76;75.87;100887.34;6007152;23;20087;-80
2021/06/10 09:02:38;;;;;;;1.40;1.15;;;;;;;17.97;75.80;100883.47;5980535;23;20008;-85
2021/06/10 09:05:11;;;;;;;1.85;1.40;;;;;;;18.18;75.42;100870.53;5957988;23;20897;-86
2021/06/10 09:07:38;;;;;;;1.85;1.25;;;;;;;18.51;74.38;100894.69;5956799;23;20327;-85
2021/06/10 09:10:05;;;;;;;1.70;1.48;;;;;;;18.77;73.49;100882.72;5980895;23;20004;-85
2021/06/10 09:12:47;;;;;;;3.90;1.38;;;;;;;18.79;72.92;100871.59;5958126;23;20279;-85
2021/06/10 09:15:12;;;;;;;1.40;1.20;;;;;;;19.06;71.95;100866.66;5980841;23;20004;-84
2021/06/10 09:17:42;;;;;;;4.40;1.27;;;;;;;19.27;72.06;100887.97;5956180;23;20996;-85
2021/06/10 09:20:20;;;;;;;1.42;1.10;;;;;;;19.10;72.32;100886.91;5978517;23;20091;-85
2021/06/10 09:22:47;;;;;;;1.65;1.20;;;;;;;18.78;72.71;100886.25;6003680;23;20345;-85
2021/06/10 09:25:16;;;;;;;2.30;1.10;;;;;;;18.56;73.39;100880.41;5955410;23;20008;-85
2021/06/10 09:27:56;;;;;;;1.65;1.30;;;;;;;18.46;73.99;100870.84;5955211;23;20383;-86
2021/06/10 09:30:47;;;;;;;1.63;1.30;;;;;;;18.93;72.33;100875.81;5979202;23;20035;-86
2021/06/10 09:33:19;;;;;;;1.63;1.02;;;;;;;19.24;71.11;100866.63;5979572;23;20054;-85
2021/06/10 09:35:45;;;;;;;1.77;1.38;;;;;;;19.53;70.47;100880.50;5958100;23;20064;-85
2021/06/10 09:38:20;;;;;;;2.05;1.50;;;;;;;19.55;69.71;100883.78;5957286;23;20000;-85
2021/06/10 09:40:48;;;;;;;3.22;1.65;;;;;;;19.37;70.03;100878.38;5957906;23;20007;-85
2021/06/10 09:43:14;;;;;;;2.85;1.70;;;;;;;19.18;70.59;100866.69;5958197;23;20010;-85
2021/06/10 09:45:48;;;;;;;4.03;1.67;;;;;;;18.90;71.73;100862.66;5957824;23;20031;-85
2021/06/10 09:48:14;;;;;;;2.63;1.95;;;;;;;18.60;72.61;100863.41;5956938;23;20012;-85
2021/06/10 09:50:46;;;;;;;4.20;1.70;;;;;;;18.42;73.54;100877.00;5957950;23;20365;-86
2021/06/10 09:53:20;;;;;;;2.30;2.00;;;;;;;18.25;74.53;100868.56;5957681;23;20438;-84
2021/06/10 09:55:46;;;;;;;3.35;1.92;;;;;;;18.15;75.06;100873.66;5957958;23;20239;-84
2021/06/10 09:58:12;;;;;;;2.60;2.00;;;;;;;18.11;75.62;100867.84;5981142;23;20018;-85
2021/06/10 10:00:38;;;;;;;3.47;1.80;;;;;;;18.07;76.25;100871.22;5980559;23;20088;-84
2021/06/10 10:03:04;;;;;;;2.67;2.22;;;;;;;18.05;76.48;100867.91;5957447;23;20004;-85
2021/06/10 10:05:29;;;;;;;2.78;1.90;;;;;;;18.01;76.61;100849.28;5957788;23;20315;-84
2021/06/10 10:07:55;;;;;;;1.90;1.42;;;;;;;17.98;76.79;100857.09;5956960;23;20480;-86
2021/06/10 10:10:21;;;;;;;3.50;2.38;;;;;;;18.00;76.68;100866.69;5958149;23;20387;-84
2021/06/10 10:12:49;;;;;;;2.78;2.30;;;;;;;18.09;77.13;100856.34;5957952;23;20639;-84
2021/06/10 10:15:16;;;;;;;2.90;2.20;;;;;;;18.10;77.65;100878.94;5958053;23;20016;-84
2021/06/10 10:17:42;;;;;;;2.67;2.10;;;;;;;18.13;77.11;100873.09;5956872;23;20024;-85
2021/06/10 10:20:08;;;;;;;2.70;2.15;;;;;;;18.17;76.61;100869.66;5957917;23;20012;-85
2021/06/10 10:22:35;;;;;;;2.80;2.38;;;;;;;18.16;76.54;100869.91;5957936;23;20016;-84
2021/06/10 10:25:02;;;;;;;3.17;2.40;;;;;;;18.15;76.47;100873.66;5958083;23;20004;-85
2021/06/10 10:27:28;;;;;;;3.25;2.10;;;;;;;18.13;76.68;100878.53;5957444;23;20063;-85
2021/06/10 10:29:55;;;;;;;3.15;2.10;;;;;;;18.12;76.98;100877.66;5959373;23;20007;-84
2021/06/10 10:32:24;;;;;;;3.38;2.10;;;;;;;17.99;77.04;100865.03;5961859;23;20008;-85
2021/06/10 10:34:49;;;;;;;3.28;1.90;;;;;;;18.14;77.20;100886.44;5959333;23;20402;-80
2021/06/10 10:37:24;;;;;;;3.10;2.13;;;;;;;18.31;77.15;100896.75;5958252;23;20080;-79
2021/06/10 10:39:52;;;;;;;2.50;2.03;;;;;;;18.38;76.85;100884.75;5980929;23;20597;-80
2021/06/10 10:42:34;;;;;;;2.55;2.00;;;;;;;18.54;76.46;100885.25;6006165;23;20004;-77
2021/06/10 10:45:16;;;;;;;3.33;1.77;;;;;;;18.60;76.18;100892.50;5981900;23;20004;-78
2021/06/10 10:47:47;;;;;;;2.78;1.83;;;;;;;18.63;75.95;100878.47;6005602;23;20004;-79
2021/06/10 10:50:17;;;;;;;3.20;1.90;;;;;;;18.60;75.80;100882.47;5981775;23;20014;-77
2021/06/10 10:52:56;;;;;;;2.80;2.13;;;;;;;18.67;75.92;100896.00;5959384;23;20395;-78
2021/06/10 10:55:31;;;;;;;3.30;1.60;;;;;;;18.51;75.92;100888.41;5981340;23;20004;-77
2021/06/10 10:58:18;;;;;;;2.03;1.73;;;;;;;18.53;76.09;100884.41;5982876;23;20000;-78
2021/06/10 11:00:57;;;;;;;2.58;2.15;;;;;;;18.50;76.03;100884.88;6003915;23;20010;-78
2021/06/10 11:03:26;;;;;;;3.10;2.00;;;;;;;18.54;75.90;100869.72;5954709;23;20022;-78
2021/06/10 11:05:52;;;;;;;7.30;4.72;;;;;;;18.57;76.49;100866.53;5979116;23;20094;-78
2021/06/10 11:08:18;;;;;;;5.30;3.75;;;;;;;18.54;76.26;100877.91;5977394;23;20018;-78
2021/06/10 11:10:54;;;;;;;7.13;3.38;;;;;;;18.68;76.25;100886.75;6004169;23;20007;-78
2021/06/10 11:13:23;;;;;;;4.63;3.08;;;;;;;18.87;75.80;100882.19;6004624;23;20019;-79
2021/06/10 11:15:51;;;;;;;6.80;4.40;;;;;;;18.90;75.34;100879.00;5976915;23;20011;-79
2021/06/10 11:18:39;;;;;;;3.42;2.67;;;;;;;18.84;75.28;100891.66;5978677;23;20007;-78
2021/06/10 11:21:05;;;;;;;4.32;3.50;;;;;;;18.83;75.65;100884.53;5979436;23;20012;-80
2021/06/10 11:23:30;;;;;;;5.30;2.72;;;;;;;18.75;75.37;100906.63;5955041;23;20008;-77